sensor_id;sensor_type;location;lat;lon;timestamp;P1;durP1;ratioP1;P2;durP2;ratioP2
20830;SDS011;10576;53.556;9.868;2023-03-01T00:02:19;8.52;;;7.00;;
20830;SDS011;10576;53.556;9.868;2023-03-01T00:04:45;9.88;;;6.97;;
20830;SDS011;10576;53.556;9.868;2023-03-01T00:07:12;12.15;;;7.50;;
20830;SDS011;10576;53.556;9.868;2023-03-01T00:09:38;10.85;;;7.20;;
20830;SDS011;10576;53.556;9.868;2023-03-01T00:12:05;11.32;;;7.43;;
20830;SDS011;10576;53.556;9.868;2023-03-01T00:14:31;10.70;;;7.43;;
20830;SDS011;10576;53.556;9.868;2023-03-01T00:16:57;11.23;;;7.33;;
20830;SDS011;10576;53.556;9.868;2023-03-01T00:19:23;9.90;;;7.50;;
20830;SDS011;10576;53.556;9.868;2023-03-01T00:21:51;11.50;;;6.97;;
20830;SDS011;10576;53.556;9.868;2023-03-01T00:24:18;10.02;;;6.65;;
20830;SDS011;10576;53.556;9.868;2023-03-01T00:26:43;10.90;;;7.53;;
20830;SDS011;10576;53.556;9.868;2023-03-01T00:29:09;9.25;;;6.97;;
20830;SDS011;10576;53.556;9.868;2023-03-01T00:31:35;10.15;;;7.30;;
20830;SDS011;10576;53.556;9.868;2023-03-01T00:34:02;9.77;;;7.88;;
20830;SDS011;10576;53.556;9.868;2023-03-01T00:36:30;11.07;;;7.35;;
20830;SDS011;10576;53.556;9.868;2023-03-01T00:38:57;10.10;;;7.38;;
20830;SDS011;10576;53.556;9.868;2023-03-01T00:41:23;9.77;;;7.60;;
20830;SDS011;10576;53.556;9.868;2023-03-01T00:43:51;11.23;;;7.47;;
20830;SDS011;10576;53.556;9.868;2023-03-01T00:46:19;11.93;;;7.50;;
20830;SDS011;10576;53.556;9.868;2023-03-01T00:48:46;10.55;;;7.45;;
20830;SDS011;10576;53.556;9.868;2023-03-01T00:51:22;10.73;;;7.75;;
20830;SDS011;10576;53.556;9.868;2023-03-01T00:53:54;10.35;;;7.30;;
20830;SDS011;10576;53.556;9.868;2023-03-01T00:56:21;9.50;;;7.40;;
20830;SDS011;10576;53.556;9.868;2023-03-01T00:58:48;9.25;;;7.35;;
20830;SDS011;10576;53.556;9.868;2023-03-01T01:01:18;8.77;;;7.20;;
20830;SDS011;10576;53.556;9.868;2023-03-01T01:03:50;10.98;;;7.40;;
20830;SDS011;10576;53.556;9.868;2023-03-01T01:06:45;12.77;;;7.88;;
20830;SDS011;10576;53.556;9.868;2023-03-01T01:09:13;12.38;;;7.47;;
20830;SDS011;10576;53.556;9.868;2023-03-01T01:11:45;9.60;;;7.40;;
20830;SDS011;10576;53.556;9.868;2023-03-01T01:14:12;10.23;;;7.80;;
20830;SDS011;10576;53.556;9.868;2023-03-01T01:16:39;10.40;;;7.68;;
20830;SDS011;10576;53.556;9.868;2023-03-01T01:19:05;9.73;;;7.43;;
20830;SDS011;10576;53.556;9.868;2023-03-01T01:21:31;8.48;;;7.30;;
20830;SDS011;10576;53.556;9.868;2023-03-01T01:23:57;9.38;;;7.35;;
20830;SDS011;10576;53.556;9.868;2023-03-01T01:26:27;10.95;;;7.60;;
20830;SDS011;10576;53.556;9.868;2023-03-01T01:28:55;9.65;;;7.45;;
20830;SDS011;10576;53.556;9.868;2023-03-01T01:31:22;10.07;;;7.47;;
20830;SDS011;10576;53.556;9.868;2023-03-01T01:33:48;10.10;;;7.22;;
20830;SDS011;10576;53.556;9.868;2023-03-01T01:36:14;9.68;;;7.43;;
20830;SDS011;10576;53.556;9.868;2023-03-01T01:38:41;11.05;;;7.30;;
20830;SDS011;10576;53.556;9.868;2023-03-01T01:41:08;9.43;;;7.50;;
20830;SDS011;10576;53.556;9.868;2023-03-01T01:43:38;9.07;;;7.55;;
20830;SDS011;10576;53.556;9.868;2023-03-01T01:48:52;10.00;;;7.53;;
20830;SDS011;10576;53.556;9.868;2023-03-01T01:51:24;9.38;;;7.10;;
20830;SDS011;10576;53.556;9.868;2023-03-01T01:53:58;10.65;;;7.32;;
20830;SDS011;10576;53.556;9.868;2023-03-01T01:56:26;10.80;;;7.45;;
20830;SDS011;10576;53.556;9.868;2023-03-01T01:58:53;9.88;;;7.32;;
20830;SDS011;10576;53.556;9.868;2023-03-01T02:01:20;9.10;;;6.88;;
20830;SDS011;10576;53.556;9.868;2023-03-01T02:03:46;8.32;;;7.30;;
20830;SDS011;10576;53.556;9.868;2023-03-01T02:06:17;10.40;;;7.30;;
20830;SDS011;10576;53.556;9.868;2023-03-01T02:08:45;9.20;;;7.17;;
20830;SDS011;10576;53.556;9.868;2023-03-01T02:11:14;9.10;;;6.97;;
20830;SDS011;10576;53.556;9.868;2023-03-01T02:13:40;8.90;;;7.43;;
20830;SDS011;10576;53.556;9.868;2023-03-01T02:16:11;9.40;;;7.13;;
20830;SDS011;10576;53.556;9.868;2023-03-01T02:18:39;8.80;;;7.13;;
20830;SDS011;10576;53.556;9.868;2023-03-01T02:23:43;8.70;;;7.20;;
20830;SDS011;10576;53.556;9.868;2023-03-01T02:28:53;9.98;;;7.20;;
20830;SDS011;10576;53.556;9.868;2023-03-01T02:31:19;8.77;;;6.97;;
20830;SDS011;10576;53.556;9.868;2023-03-01T02:34:05;9.27;;;7.15;;
20830;SDS011;10576;53.556;9.868;2023-03-01T02:36:37;9.40;;;7.03;;
20830;SDS011;10576;53.556;9.868;2023-03-01T02:39:07;9.43;;;6.70;;
20830;SDS011;10576;53.556;9.868;2023-03-01T02:41:39;8.82;;;7.03;;
20830;SDS011;10576;53.556;9.868;2023-03-01T02:44:07;8.65;;;7.07;;
20830;SDS011;10576;53.556;9.868;2023-03-01T02:46:34;8.53;;;6.30;;
20830;SDS011;10576;53.556;9.868;2023-03-01T02:49:18;8.37;;;6.70;;
20830;SDS011;10576;53.556;9.868;2023-03-01T02:56:55;10.40;;;6.70;;
20830;SDS011;10576;53.556;9.868;2023-03-01T02:59:22;8.37;;;6.07;;
20830;SDS011;10576;53.556;9.868;2023-03-01T03:01:50;10.05;;;6.65;;
20830;SDS011;10576;53.556;9.868;2023-03-01T03:04:18;10.00;;;6.70;;
20830;SDS011;10576;53.556;9.868;2023-03-01T03:06:46;8.45;;;6.38;;
20830;SDS011;10576;53.556;9.868;2023-03-01T03:09:13;8.50;;;6.57;;
20830;SDS011;10576;53.556;9.868;2023-03-01T03:11:40;8.63;;;6.82;;
20830;SDS011;10576;53.556;9.868;2023-03-01T03:14:08;8.45;;;6.50;;
20830;SDS011;10576;53.556;9.868;2023-03-01T03:16:47;9.80;;;6.25;;
20830;SDS011;10576;53.556;9.868;2023-03-01T03:19:14;8.57;;;6.28;;
20830;SDS011;10576;53.556;9.868;2023-03-01T03:21:41;8.60;;;6.38;;
20830;SDS011;10576;53.556;9.868;2023-03-01T03:24:07;8.63;;;6.45;;
20830;SDS011;10576;53.556;9.868;2023-03-01T03:26:33;9.45;;;5.85;;
20830;SDS011;10576;53.556;9.868;2023-03-01T03:28:59;9.60;;;6.60;;
20830;SDS011;10576;53.556;9.868;2023-03-01T03:31:26;7.05;;;6.03;;
20830;SDS011;10576;53.556;9.868;2023-03-01T03:33:52;7.78;;;6.07;;
20830;SDS011;10576;53.556;9.868;2023-03-01T03:36:19;9.00;;;6.28;;
20830;SDS011;10576;53.556;9.868;2023-03-01T03:38:45;7.65;;;5.93;;
20830;SDS011;10576;53.556;9.868;2023-03-01T03:41:12;7.65;;;6.10;;
20830;SDS011;10576;53.556;9.868;2023-03-01T03:43:38;7.47;;;6.32;;
20830;SDS011;10576;53.556;9.868;2023-03-01T03:46:05;7.73;;;5.80;;
20830;SDS011;10576;53.556;9.868;2023-03-01T03:48:35;7.05;;;5.90;;
20830;SDS011;10576;53.556;9.868;2023-03-01T03:51:02;6.70;;;6.00;;
20830;SDS011;10576;53.556;9.868;2023-03-01T03:53:30;8.20;;;5.75;;
20830;SDS011;10576;53.556;9.868;2023-03-01T03:55:57;6.50;;;5.60;;
20830;SDS011;10576;53.556;9.868;2023-03-01T03:58:23;8.02;;;6.20;;
20830;SDS011;10576;53.556;9.868;2023-03-01T04:00:52;7.25;;;5.70;;
20830;SDS011;10576;53.556;9.868;2023-03-01T04:03:21;7.35;;;5.80;;
20830;SDS011;10576;53.556;9.868;2023-03-01T04:05:47;8.68;;;5.72;;
20830;SDS011;10576;53.556;9.868;2023-03-01T04:08:15;7.43;;;6.05;;
20830;SDS011;10576;53.556;9.868;2023-03-01T04:10:45;6.20;;;5.40;;
20830;SDS011;10576;53.556;9.868;2023-03-01T04:13:13;6.32;;;5.45;;
20830;SDS011;10576;53.556;9.868;2023-03-01T04:15:40;6.93;;;5.60;;
20830;SDS011;10576;53.556;9.868;2023-03-01T04:18:08;7.20;;;5.43;;
20830;SDS011;10576;53.556;9.868;2023-03-01T04:20:36;8.52;;;5.55;;
20830;SDS011;10576;53.556;9.868;2023-03-01T04:23:07;6.30;;;5.35;;
20830;SDS011;10576;53.556;9.868;2023-03-01T04:25:42;7.65;;;5.90;;
20830;SDS011;10576;53.556;9.868;2023-03-01T04:28:09;7.80;;;5.73;;
20830;SDS011;10576;53.556;9.868;2023-03-01T04:30:35;6.50;;;5.35;;
20830;SDS011;10576;53.556;9.868;2023-03-01T04:33:03;8.13;;;5.67;;
20830;SDS011;10576;53.556;9.868;2023-03-01T04:35:30;7.55;;;5.22;;
20830;SDS011;10576;53.556;9.868;2023-03-01T04:37:57;7.40;;;5.43;;
20830;SDS011;10576;53.556;9.868;2023-03-01T04:40:24;6.72;;;5.45;;
20830;SDS011;10576;53.556;9.868;2023-03-01T04:42:50;6.78;;;5.53;;
20830;SDS011;10576;53.556;9.868;2023-03-01T04:45:16;7.03;;;5.20;;
20830;SDS011;10576;53.556;9.868;2023-03-01T04:47:43;6.95;;;5.50;;
20830;SDS011;10576;53.556;9.868;2023-03-01T04:50:11;8.75;;;5.60;;
20830;SDS011;10576;53.556;9.868;2023-03-01T04:52:39;6.72;;;5.15;;
20830;SDS011;10576;53.556;9.868;2023-03-01T04:55:05;5.80;;;5.20;;
20830;SDS011;10576;53.556;9.868;2023-03-01T04:57:32;7.05;;;5.00;;
20830;SDS011;10576;53.556;9.868;2023-03-01T04:59:58;7.28;;;4.80;;
20830;SDS011;10576;53.556;9.868;2023-03-01T05:02:24;6.65;;;4.53;;
20830;SDS011;10576;53.556;9.868;2023-03-01T05:04:50;5.00;;;4.50;;
20830;SDS011;10576;53.556;9.868;2023-03-01T05:07:16;5.05;;;4.15;;
20830;SDS011;10576;53.556;9.868;2023-03-01T05:09:47;6.27;;;4.60;;
20830;SDS011;10576;53.556;9.868;2023-03-01T05:12:13;5.22;;;4.55;;
20830;SDS011;10576;53.556;9.868;2023-03-01T05:14:40;6.07;;;4.47;;
20830;SDS011;10576;53.556;9.868;2023-03-01T05:17:06;6.90;;;4.65;;
20830;SDS011;10576;53.556;9.868;2023-03-01T05:19:33;6.75;;;4.60;;
20830;SDS011;10576;53.556;9.868;2023-03-01T05:21:59;7.83;;;4.80;;
20830;SDS011;10576;53.556;9.868;2023-03-01T05:24:31;6.30;;;4.38;;
20830;SDS011;10576;53.556;9.868;2023-03-01T05:26:59;5.95;;;4.50;;
20830;SDS011;10576;53.556;9.868;2023-03-01T05:29:26;5.97;;;4.60;;
20830;SDS011;10576;53.556;9.868;2023-03-01T05:31:54;5.28;;;4.50;;
20830;SDS011;10576;53.556;9.868;2023-03-01T05:34:26;6.32;;;4.55;;
20830;SDS011;10576;53.556;9.868;2023-03-01T05:36:54;5.18;;;4.10;;
20830;SDS011;10576;53.556;9.868;2023-03-01T05:39:21;5.15;;;4.15;;
20830;SDS011;10576;53.556;9.868;2023-03-01T05:41:47;5.20;;;4.27;;
20830;SDS011;10576;53.556;9.868;2023-03-01T05:44:16;6.03;;;4.47;;
20830;SDS011;10576;53.556;9.868;2023-03-01T05:46:42;4.88;;;4.18;;
20830;SDS011;10576;53.556;9.868;2023-03-01T05:49:09;4.93;;;4.10;;
20830;SDS011;10576;53.556;9.868;2023-03-01T05:51:36;7.20;;;4.57;;
20830;SDS011;10576;53.556;9.868;2023-03-01T05:54:02;5.35;;;4.18;;
20830;SDS011;10576;53.556;9.868;2023-03-01T05:56:27;6.40;;;4.70;;
20830;SDS011;10576;53.556;9.868;2023-03-01T05:58:54;4.95;;;4.45;;
20830;SDS011;10576;53.556;9.868;2023-03-01T06:01:19;7.40;;;4.37;;
20830;SDS011;10576;53.556;9.868;2023-03-01T06:03:45;5.15;;;4.10;;
20830;SDS011;10576;53.556;9.868;2023-03-01T06:06:11;4.60;;;4.10;;
20830;SDS011;10576;53.556;9.868;2023-03-01T06:08:37;4.90;;;3.80;;
20830;SDS011;10576;53.556;9.868;2023-03-01T06:11:03;5.75;;;4.30;;
20830;SDS011;10576;53.556;9.868;2023-03-01T06:13:30;5.28;;;4.30;;
20830;SDS011;10576;53.556;9.868;2023-03-01T06:15:55;5.25;;;4.18;;
20830;SDS011;10576;53.556;9.868;2023-03-01T06:18:21;6.23;;;4.47;;
20830;SDS011;10576;53.556;9.868;2023-03-01T06:20:52;6.35;;;4.22;;
20830;SDS011;10576;53.556;9.868;2023-03-01T06:23:18;4.97;;;4.43;;
20830;SDS011;10576;53.556;9.868;2023-03-01T06:25:44;4.35;;;3.72;;
20830;SDS011;10576;53.556;9.868;2023-03-01T06:28:10;5.60;;;4.10;;
20830;SDS011;10576;53.556;9.868;2023-03-01T06:30:36;5.75;;;4.25;;
20830;SDS011;10576;53.556;9.868;2023-03-01T06:33:02;5.05;;;4.30;;
20830;SDS011;10576;53.556;9.868;2023-03-01T06:35:30;6.72;;;4.13;;
20830;SDS011;10576;53.556;9.868;2023-03-01T06:37:57;5.10;;;4.07;;
20830;SDS011;10576;53.556;9.868;2023-03-01T06:40:24;6.05;;;4.40;;
20830;SDS011;10576;53.556;9.868;2023-03-01T06:42:50;8.57;;;4.57;;
20830;SDS011;10576;53.556;9.868;2023-03-01T06:45:17;7.25;;;4.30;;
20830;SDS011;10576;53.556;9.868;2023-03-01T06:47:44;8.30;;;4.90;;
20830;SDS011;10576;53.556;9.868;2023-03-01T06:50:11;6.05;;;4.57;;
20830;SDS011;10576;53.556;9.868;2023-03-01T06:52:37;11.17;;;5.63;;
20830;SDS011;10576;53.556;9.868;2023-03-01T06:55:04;6.60;;;5.65;;
20830;SDS011;10576;53.556;9.868;2023-03-01T06:57:30;10.02;;;5.25;;
20830;SDS011;10576;53.556;9.868;2023-03-01T06:59:56;8.43;;;5.10;;
20830;SDS011;10576;53.556;9.868;2023-03-01T07:02:22;6.75;;;4.80;;
20830;SDS011;10576;53.556;9.868;2023-03-01T07:04:49;5.72;;;4.78;;
20830;SDS011;10576;53.556;9.868;2023-03-01T07:07:15;6.80;;;4.97;;
20830;SDS011;10576;53.556;9.868;2023-03-01T07:09:43;8.15;;;4.82;;
20830;SDS011;10576;53.556;9.868;2023-03-01T07:12:09;6.78;;;4.80;;
20830;SDS011;10576;53.556;9.868;2023-03-01T07:14:35;10.00;;;4.90;;
20830;SDS011;10576;53.556;9.868;2023-03-01T07:17:00;8.47;;;5.20;;
20830;SDS011;10576;53.556;9.868;2023-03-01T07:19:26;9.00;;;6.40;;
20830;SDS011;10576;53.556;9.868;2023-03-01T07:21:52;11.83;;;5.93;;
20830;SDS011;10576;53.556;9.868;2023-03-01T07:24:18;13.20;;;5.88;;
20830;SDS011;10576;53.556;9.868;2023-03-01T07:26:47;7.32;;;5.43;;
20830;SDS011;10576;53.556;9.868;2023-03-01T07:29:17;11.10;;;5.35;;
20830;SDS011;10576;53.556;9.868;2023-03-01T07:31:43;7.60;;;5.20;;
20830;SDS011;10576;53.556;9.868;2023-03-01T07:34:09;6.72;;;5.40;;
20830;SDS011;10576;53.556;9.868;2023-03-01T07:36:35;6.68;;;5.00;;
20830;SDS011;10576;53.556;9.868;2023-03-01T07:39:02;7.55;;;5.20;;
20830;SDS011;10576;53.556;9.868;2023-03-01T07:41:28;7.05;;;5.10;;
20830;SDS011;10576;53.556;9.868;2023-03-01T07:43:54;9.68;;;5.35;;
20830;SDS011;10576;53.556;9.868;2023-03-01T07:46:20;8.90;;;5.07;;
20830;SDS011;10576;53.556;9.868;2023-03-01T07:48:46;6.83;;;5.60;;
20830;SDS011;10576;53.556;9.868;2023-03-01T07:51:12;9.50;;;5.80;;
20830;SDS011;10576;53.556;9.868;2023-03-01T07:53:38;13.27;;;6.77;;
20830;SDS011;10576;53.556;9.868;2023-03-01T07:56:05;10.40;;;7.53;;
20830;SDS011;10576;53.556;9.868;2023-03-01T07:58:40;10.40;;;7.10;;
20830;SDS011;10576;53.556;9.868;2023-03-01T08:01:07;9.65;;;7.28;;
20830;SDS011;10576;53.556;9.868;2023-03-01T08:03:34;10.27;;;7.97;;
20830;SDS011;10576;53.556;9.868;2023-03-01T08:06:01;11.93;;;8.25;;
20830;SDS011;10576;53.556;9.868;2023-03-01T08:08:27;9.70;;;8.20;;
20830;SDS011;10576;53.556;9.868;2023-03-01T08:10:56;11.17;;;8.47;;
20830;SDS011;10576;53.556;9.868;2023-03-01T08:13:22;14.27;;;8.97;;
20830;SDS011;10576;53.556;9.868;2023-03-01T08:15:51;9.63;;;8.45;;
20830;SDS011;10576;53.556;9.868;2023-03-01T08:18:17;9.68;;;8.25;;
20830;SDS011;10576;53.556;9.868;2023-03-01T08:20:44;12.32;;;8.38;;
20830;SDS011;10576;53.556;9.868;2023-03-01T08:23:10;11.40;;;8.10;;
20830;SDS011;10576;53.556;9.868;2023-03-01T08:25:36;12.85;;;7.45;;
20830;SDS011;10576;53.556;9.868;2023-03-01T08:28:02;8.93;;;6.72;;
20830;SDS011;10576;53.556;9.868;2023-03-01T08:30:29;9.55;;;6.72;;
20830;SDS011;10576;53.556;9.868;2023-03-01T08:32:55;11.05;;;6.78;;
20830;SDS011;10576;53.556;9.868;2023-03-01T08:35:21;9.87;;;6.30;;
20830;SDS011;10576;53.556;9.868;2023-03-01T08:37:47;9.65;;;6.40;;
20830;SDS011;10576;53.556;9.868;2023-03-01T08:40:13;7.47;;;6.35;;
20830;SDS011;10576;53.556;9.868;2023-03-01T08:42:40;9.60;;;6.38;;
20830;SDS011;10576;53.556;9.868;2023-03-01T08:45:07;10.20;;;6.80;;
20830;SDS011;10576;53.556;9.868;2023-03-01T08:47:33;10.43;;;6.68;;
20830;SDS011;10576;53.556;9.868;2023-03-01T08:50:00;9.32;;;6.80;;
20830;SDS011;10576;53.556;9.868;2023-03-01T08:52:25;10.13;;;7.40;;
20830;SDS011;10576;53.556;9.868;2023-03-01T08:54:52;8.13;;;6.80;;
20830;SDS011;10576;53.556;9.868;2023-03-01T08:57:18;8.53;;;6.57;;
20830;SDS011;10576;53.556;9.868;2023-03-01T08:59:44;11.15;;;7.43;;
20830;SDS011;10576;53.556;9.868;2023-03-01T09:02:17;11.57;;;9.13;;
20830;SDS011;10576;53.556;9.868;2023-03-01T09:04:43;10.73;;;8.85;;
20830;SDS011;10576;53.556;9.868;2023-03-01T09:07:09;10.13;;;8.75;;
20830;SDS011;10576;53.556;9.868;2023-03-01T09:09:36;11.07;;;9.05;;
20830;SDS011;10576;53.556;9.868;2023-03-01T09:12:02;10.63;;;9.13;;
20830;SDS011;10576;53.556;9.868;2023-03-01T09:14:28;14.17;;;9.97;;
20830;SDS011;10576;53.556;9.868;2023-03-01T09:16:54;12.23;;;9.68;;
20830;SDS011;10576;53.556;9.868;2023-03-01T09:19:20;13.00;;;10.05;;
20830;SDS011;10576;53.556;9.868;2023-03-01T09:21:46;10.95;;;9.50;;
20830;SDS011;10576;53.556;9.868;2023-03-01T09:24:22;15.07;;;9.83;;
20830;SDS011;10576;53.556;9.868;2023-03-01T09:26:48;11.75;;;9.23;;
20830;SDS011;10576;53.556;9.868;2023-03-01T09:29:15;15.40;;;10.15;;
20830;SDS011;10576;53.556;9.868;2023-03-01T09:31:41;12.93;;;10.35;;
20830;SDS011;10576;53.556;9.868;2023-03-01T09:34:08;13.30;;;10.73;;
20830;SDS011;10576;53.556;9.868;2023-03-01T09:36:34;13.80;;;11.25;;
20830;SDS011;10576;53.556;9.868;2023-03-01T09:39:01;16.83;;;11.82;;
20830;SDS011;10576;53.556;9.868;2023-03-01T09:47:00;14.05;;;11.00;;
20830;SDS011;10576;53.556;9.868;2023-03-01T09:49:27;12.73;;;10.88;;
20830;SDS011;10576;53.556;9.868;2023-03-01T09:54:21;13.55;;;10.77;;
20830;SDS011;10576;53.556;9.868;2023-03-01T09:56:59;14.82;;;10.68;;
20830;SDS011;10576;53.556;9.868;2023-03-01T09:59:31;11.95;;;10.15;;
20830;SDS011;10576;53.556;9.868;2023-03-01T10:04:50;14.65;;;10.38;;
20830;SDS011;10576;53.556;9.868;2023-03-01T10:09:53;12.13;;;9.98;;
20830;SDS011;10576;53.556;9.868;2023-03-01T10:12:20;11.85;;;9.93;;
20830;SDS011;10576;53.556;9.868;2023-03-01T10:15:04;11.93;;;9.68;;
20830;SDS011;10576;53.556;9.868;2023-03-01T10:20:25;12.83;;;9.20;;
20830;SDS011;10576;53.556;9.868;2023-03-01T10:22:54;10.10;;;8.95;;
20830;SDS011;10576;53.556;9.868;2023-03-01T10:25:30;11.45;;;9.38;;
20830;SDS011;10576;53.556;9.868;2023-03-01T10:28:21;11.05;;;9.10;;
20830;SDS011;10576;53.556;9.868;2023-03-01T10:30:50;14.02;;;9.48;;
20830;SDS011;10576;53.556;9.868;2023-03-01T10:33:19;10.50;;;8.38;;
20830;SDS011;10576;53.556;9.868;2023-03-01T10:35:48;11.15;;;9.02;;
20830;SDS011;10576;53.556;9.868;2023-03-01T10:38:15;11.17;;;8.37;;
20830;SDS011;10576;53.556;9.868;2023-03-01T10:43:17;10.50;;;8.50;;
20830;SDS011;10576;53.556;9.868;2023-03-01T10:45:43;12.48;;;8.90;;
20830;SDS011;10576;53.556;9.868;2023-03-01T10:48:16;13.18;;;9.60;;
20830;SDS011;10576;53.556;9.868;2023-03-01T10:50:49;12.70;;;9.38;;
20830;SDS011;10576;53.556;9.868;2023-03-01T10:53:26;12.63;;;9.88;;
20830;SDS011;10576;53.556;9.868;2023-03-01T10:56:10;12.00;;;9.18;;
20830;SDS011;10576;53.556;9.868;2023-03-01T10:58:39;14.93;;;9.70;;
20830;SDS011;10576;53.556;9.868;2023-03-01T11:01:08;11.50;;;8.95;;
20830;SDS011;10576;53.556;9.868;2023-03-01T11:06:31;12.45;;;9.32;;
20830;SDS011;10576;53.556;9.868;2023-03-01T11:08:57;11.60;;;9.00;;
20830;SDS011;10576;53.556;9.868;2023-03-01T11:11:38;12.90;;;8.88;;
20830;SDS011;10576;53.556;9.868;2023-03-01T11:16:40;11.85;;;8.85;;
20830;SDS011;10576;53.556;9.868;2023-03-01T11:21:41;12.23;;;9.23;;
20830;SDS011;10576;53.556;9.868;2023-03-01T11:24:25;12.20;;;9.52;;
20830;SDS011;10576;53.556;9.868;2023-03-01T11:26:53;14.38;;;9.45;;
20830;SDS011;10576;53.556;9.868;2023-03-01T11:29:35;12.27;;;9.02;;
20830;SDS011;10576;53.556;9.868;2023-03-01T11:32:04;13.40;;;8.90;;
20830;SDS011;10576;53.556;9.868;2023-03-01T11:34:38;11.10;;;8.05;;
20830;SDS011;10576;53.556;9.868;2023-03-01T11:37:09;10.13;;;7.57;;
20830;SDS011;10576;53.556;9.868;2023-03-01T11:45:02;11.82;;;8.68;;
20830;SDS011;10576;53.556;9.868;2023-03-01T11:47:45;11.60;;;7.60;;
20830;SDS011;10576;53.556;9.868;2023-03-01T11:58:27;10.23;;;7.10;;
20830;SDS011;10576;53.556;9.868;2023-03-01T12:06:49;9.07;;;6.43;;
20830;SDS011;10576;53.556;9.868;2023-03-01T12:17:39;10.18;;;6.68;;
20830;SDS011;10576;53.556;9.868;2023-03-01T12:25:39;8.82;;;6.70;;
20830;SDS011;10576;53.556;9.868;2023-03-01T12:28:19;8.95;;;6.78;;
20830;SDS011;10576;53.556;9.868;2023-03-01T12:36:21;9.13;;;6.45;;
20830;SDS011;10576;53.556;9.868;2023-03-01T12:38:50;8.57;;;6.22;;
20830;SDS011;10576;53.556;9.868;2023-03-01T12:41:35;6.90;;;5.68;;
20830;SDS011;10576;53.556;9.868;2023-03-01T12:44:22;8.43;;;6.20;;
20830;SDS011;10576;53.556;9.868;2023-03-01T12:46:58;8.43;;;6.35;;
20830;SDS011;10576;53.556;9.868;2023-03-01T12:49:28;8.50;;;6.75;;
20830;SDS011;10576;53.556;9.868;2023-03-01T12:52:11;7.25;;;5.68;;
20830;SDS011;10576;53.556;9.868;2023-03-01T12:54:39;6.32;;;5.50;;
20830;SDS011;10576;53.556;9.868;2023-03-01T12:57:12;7.30;;;5.82;;
20830;SDS011;10576;53.556;9.868;2023-03-01T12:59:42;6.25;;;5.28;;
20830;SDS011;10576;53.556;9.868;2023-03-01T13:02:33;9.40;;;6.13;;
20830;SDS011;10576;53.556;9.868;2023-03-01T13:07:36;9.35;;;7.13;;
20830;SDS011;10576;53.556;9.868;2023-03-01T13:13:25;10.23;;;7.60;;
20830;SDS011;10576;53.556;9.868;2023-03-01T13:15:52;10.55;;;7.65;;
20830;SDS011;10576;53.556;9.868;2023-03-01T13:20:46;8.07;;;6.40;;
20830;SDS011;10576;53.556;9.868;2023-03-01T13:26:02;7.47;;;5.90;;
20830;SDS011;10576;53.556;9.868;2023-03-01T13:36:10;6.78;;;5.65;;
20830;SDS011;10576;53.556;9.868;2023-03-01T13:44:21;7.25;;;5.43;;
20830;SDS011;10576;53.556;9.868;2023-03-01T13:46:47;6.57;;;5.65;;
20830;SDS011;10576;53.556;9.868;2023-03-01T13:49:16;7.97;;;5.90;;
20830;SDS011;10576;53.556;9.868;2023-03-01T13:51:47;9.35;;;5.60;;
20830;SDS011;10576;53.556;9.868;2023-03-01T13:54:14;8.37;;;4.83;;
20830;SDS011;10576;53.556;9.868;2023-03-01T13:56:51;6.03;;;4.95;;
20830;SDS011;10576;53.556;9.868;2023-03-01T13:59:18;7.20;;;5.47;;
20830;SDS011;10576;53.556;9.868;2023-03-01T14:01:51;7.20;;;5.53;;
20830;SDS011;10576;53.556;9.868;2023-03-01T14:04:24;7.15;;;5.43;;
20830;SDS011;10576;53.556;9.868;2023-03-01T14:07:38;7.18;;;5.40;;
20830;SDS011;10576;53.556;9.868;2023-03-01T14:09:44;6.72;;;5.35;;
20830;SDS011;10576;53.556;9.868;2023-03-01T14:20:36;7.40;;;5.50;;
20830;SDS011;10576;53.556;9.868;2023-03-01T14:23:17;6.45;;;5.00;;
20830;SDS011;10576;53.556;9.868;2023-03-01T14:28:18;7.53;;;4.80;;
20830;SDS011;10576;53.556;9.868;2023-03-01T14:30:49;5.93;;;4.68;;
20830;SDS011;10576;53.556;9.868;2023-03-01T14:35:52;7.40;;;4.72;;
20830;SDS011;10576;53.556;9.868;2023-03-01T14:38:21;5.72;;;3.70;;
20830;SDS011;10576;53.556;9.868;2023-03-01T14:40:49;4.75;;;4.07;;
20830;SDS011;10576;53.556;9.868;2023-03-01T14:43:18;6.03;;;4.57;;
20830;SDS011;10576;53.556;9.868;2023-03-01T14:45:48;5.85;;;4.55;;
20830;SDS011;10576;53.556;9.868;2023-03-01T14:48:15;7.07;;;5.03;;
20830;SDS011;10576;53.556;9.868;2023-03-01T14:50:41;6.82;;;5.00;;
20830;SDS011;10576;53.556;9.868;2023-03-01T14:56:04;5.43;;;4.65;;
20830;SDS011;10576;53.556;9.868;2023-03-01T14:58:31;6.60;;;4.87;;
20830;SDS011;10576;53.556;9.868;2023-03-01T15:00:59;6.38;;;5.10;;
20830;SDS011;10576;53.556;9.868;2023-03-01T15:05:57;6.40;;;4.50;;
20830;SDS011;10576;53.556;9.868;2023-03-01T15:08:26;6.72;;;4.82;;
20830;SDS011;10576;53.556;9.868;2023-03-01T15:13:34;7.67;;;5.50;;
20830;SDS011;10576;53.556;9.868;2023-03-01T15:16:04;7.40;;;5.73;;
20830;SDS011;10576;53.556;9.868;2023-03-01T15:18:32;7.70;;;5.78;;
20830;SDS011;10576;53.556;9.868;2023-03-01T15:21:15;6.95;;;5.32;;
20830;SDS011;10576;53.556;9.868;2023-03-01T15:23:47;7.03;;;5.60;;
20830;SDS011;10576;53.556;9.868;2023-03-01T15:26:23;7.43;;;5.57;;
20830;SDS011;10576;53.556;9.868;2023-03-01T15:28:50;8.88;;;5.93;;
20830;SDS011;10576;53.556;9.868;2023-03-01T15:31:22;8.27;;;5.75;;
20830;SDS011;10576;53.556;9.868;2023-03-01T15:33:48;7.78;;;6.25;;
20830;SDS011;10576;53.556;9.868;2023-03-01T15:36:36;9.25;;;6.50;;
20830;SDS011;10576;53.556;9.868;2023-03-01T15:39:05;8.85;;;6.75;;
20830;SDS011;10576;53.556;9.868;2023-03-01T15:41:49;9.57;;;6.30;;
20830;SDS011;10576;53.556;9.868;2023-03-01T15:44:16;9.80;;;6.83;;
20830;SDS011;10576;53.556;9.868;2023-03-01T15:46:45;9.07;;;6.80;;
20830;SDS011;10576;53.556;9.868;2023-03-01T15:51:45;8.47;;;6.73;;
20830;SDS011;10576;53.556;9.868;2023-03-01T15:54:21;10.23;;;7.70;;
20830;SDS011;10576;53.556;9.868;2023-03-01T15:56:48;10.87;;;7.70;;
20830;SDS011;10576;53.556;9.868;2023-03-01T15:59:15;11.07;;;8.07;;
20830;SDS011;10576;53.556;9.868;2023-03-01T16:01:42;11.48;;;8.13;;
20830;SDS011;10576;53.556;9.868;2023-03-01T16:04:12;11.18;;;8.02;;
20830;SDS011;10576;53.556;9.868;2023-03-01T16:06:45;11.45;;;8.70;;
20830;SDS011;10576;53.556;9.868;2023-03-01T16:09:12;13.45;;;9.57;;
20830;SDS011;10576;53.556;9.868;2023-03-01T16:11:38;14.75;;;10.18;;
20830;SDS011;10576;53.556;9.868;2023-03-01T16:14:05;16.05;;;10.90;;
20830;SDS011;10576;53.556;9.868;2023-03-01T16:16:31;13.83;;;10.80;;
20830;SDS011;10576;53.556;9.868;2023-03-01T16:18:57;14.05;;;10.63;;
20830;SDS011;10576;53.556;9.868;2023-03-01T16:21:24;17.45;;;11.07;;
20830;SDS011;10576;53.556;9.868;2023-03-01T16:23:50;16.95;;;11.40;;
20830;SDS011;10576;53.556;9.868;2023-03-01T16:26:16;16.02;;;11.02;;
20830;SDS011;10576;53.556;9.868;2023-03-01T16:28:44;17.13;;;11.23;;
20830;SDS011;10576;53.556;9.868;2023-03-01T16:31:10;15.63;;;11.18;;
20830;SDS011;10576;53.556;9.868;2023-03-01T16:33:36;18.45;;;11.23;;
20830;SDS011;10576;53.556;9.868;2023-03-01T16:36:09;15.07;;;10.57;;
20830;SDS011;10576;53.556;9.868;2023-03-01T16:38:36;15.27;;;11.38;;
20830;SDS011;10576;53.556;9.868;2023-03-01T16:41:03;16.13;;;11.43;;
20830;SDS011;10576;53.556;9.868;2023-03-01T16:43:30;15.52;;;11.43;;
20830;SDS011;10576;53.556;9.868;2023-03-01T16:45:56;14.45;;;10.68;;
20830;SDS011;10576;53.556;9.868;2023-03-01T16:48:23;14.65;;;11.05;;
20830;SDS011;10576;53.556;9.868;2023-03-01T16:50:56;14.20;;;10.32;;
20830;SDS011;10576;53.556;9.868;2023-03-01T16:53:26;16.98;;;10.40;;
20830;SDS011;10576;53.556;9.868;2023-03-01T16:55:56;15.02;;;10.50;;
20830;SDS011;10576;53.556;9.868;2023-03-01T16:58:23;15.27;;;10.15;;